Time;durP1;ratioP1;P1;durP2;ratioP2;P2;SDS_P1;SDS_P2;PMS_P1;PMS_P2;Temp;Humidity;BMP_temperature;BMP_pressure;BME280_temperature;BME280_humidity;BME280_pressure;Samples;Min_cycle;Max_cycle;Signal;HPM_P1;HPM_P2
2021/11/13 00:01:18;;;;;;;71.93;30.20;;;;;;;4.23;100.00;100527.53;7397293;19;20708;-51
2021/11/13 00:03:47;;;;;;;84.77;29.43;;;;;;;4.35;100.00;100535.13;7390846;19;20679;-48
2021/11/13 00:06:17;;;;;;;71.37;28.83;;;;;;;4.53;100.00;100531.19;7397164;19;20704;-48
2021/11/13 00:08:49;;;;;;;70.13;30.73;;;;;;;4.46;100.00;100529.91;7393619;19;20777;-45
2021/11/13 00:11:19;;;;;;;70.67;31.07;;;;;;;4.52;100.00;100524.28;7400275;19;20400;-48
2021/11/13 00:13:52;;;;;;;78.40;29.33;;;;;;;4.51;100.00;100517.41;7400762;19;20443;-47
2021/11/13 00:16:21;;;;;;;80.37;31.87;;;;;;;4.56;100.00;100516.00;7402379;19;20746;-47
2021/11/13 00:18:51;;;;;;;72.60;31.07;;;;;;;4.61;100.00;100518.84;7394150;19;20433;-48
2021/11/13 00:21:20;;;;;;;75.10;29.47;;;;;;;4.43;100.00;100509.28;7398806;19;20379;-47
2021/11/13 00:23:52;;;;;;;73.60;28.10;;;;;;;4.22;100.00;100511.34;7395384;19;20438;-44
2021/11/13 00:26:22;;;;;;;71.43;29.23;;;;;;;4.21;100.00;100507.03;7400686;19;20384;-44
2021/11/13 00:28:51;;;;;;;70.30;28.37;;;;;;;4.14;100.00;100510.84;7396028;19;20423;-45
2021/11/13 00:31:21;;;;;;;75.10;28.70;;;;;;;4.18;100.00;100517.03;7401017;19;20386;-44
2021/11/13 00:33:50;;;;;;;77.10;29.13;;;;;;;4.22;100.00;100502.78;7393938;19;20872;-44
2021/11/13 00:36:20;;;;;;;69.33;29.47;;;;;;;4.28;100.00;100500.63;7400964;19;20443;-44
2021/11/13 00:38:49;;;;;;;74.20;28.20;;;;;;;4.19;100.00;100504.38;7394220;19;20832;-44
2021/11/13 00:41:21;;;;;;;72.00;29.43;;;;;;;4.18;100.00;100497.50;7402776;19;20680;-44
2021/11/13 00:43:51;;;;;;;82.63;30.40;;;;;;;4.33;100.00;100500.13;7397882;19;20423;-46
2021/11/13 00:46:21;;;;;;;76.57;29.70;;;;;;;4.42;100.00;100492.16;7401548;19;20434;-49
2021/11/13 00:48:50;;;;;;;83.00;31.13;;;;;;;4.45;100.00;100494.91;7394713;19;20419;-47
2021/11/13 00:51:19;;;;;;;79.50;33.40;;;;;;;4.42;100.00;100499.81;7402035;19;20384;-44
2021/11/13 00:53:49;;;;;;;75.03;28.80;;;;;;;4.39;100.00;100491.09;7394199;19;20409;-43
2021/11/13 00:56:21;;;;;;;76.30;28.80;;;;;;;4.46;100.00;100506.91;7401958;19;20394;-43
2021/11/13 00:58:51;;;;;;;78.67;30.77;;;;;;;4.36;100.00;100496.88;7396901;19;20426;-44
2021/11/13 01:01:21;;;;;;;73.87;28.70;;;;;;;4.18;100.00;100494.97;7400688;19;20400;-46
2021/11/13 01:03:50;;;;;;;79.67;29.70;;;;;;;4.23;100.00;100494.34;7395454;19;21010;-45
2021/11/13 01:06:20;;;;;;;75.90;29.47;;;;;;;4.30;100.00;100493.94;7401014;19;20455;-46
2021/11/13 01:08:50;;;;;;;81.67;29.57;;;;;;;4.17;100.00;100499.97;7393766;19;20506;-44
2021/11/13 01:11:22;;;;;;;74.57;29.60;;;;;;;4.11;100.00;100485.13;7401237;19;20388;-43
2021/11/13 01:13:52;;;;;;;81.23;29.87;;;;;;;4.36;100.00;100490.91;7397711;19;20414;-45
2021/11/13 01:16:21;;;;;;;80.77;29.87;;;;;;;4.41;100.00;100497.19;7402022;19;20379;-46
2021/11/13 01:18:51;;;;;;;74.70;28.60;;;;;;;4.21;100.00;100496.81;7394214;19;20435;-45
2021/11/13 01:21:20;;;;;;;81.17;30.07;;;;;;;4.03;100.00;100504.19;7401184;19;20447;-44
2021/11/13 01:23:50;;;;;;;77.90;31.07;;;;;;;4.08;100.00;100512.13;7395961;19;20479;-44
2021/11/13 01:26:22;;;;;;;74.73;29.33;;;;;;;3.97;100.00;100512.34;7402734;19;20463;-46
2021/11/13 01:28:52;;;;;;;77.83;30.07;;;;;;;3.95;100.00;100506.22;7397578;19;20411;-47
2021/11/13 01:31:22;;;;;;;76.30;29.50;;;;;;;3.97;100.00;100501.22;7402442;19;20379;-46
2021/11/13 01:33:56;;;;;;;69.97;27.47;;;;;;;3.85;100.00;100504.75;7395041;19;20419;-47
2021/11/13 01:36:27;;;;;;;74.63;28.60;;;;;;;3.86;100.00;100501.44;7402700;19;20451;-47
2021/11/13 01:38:57;;;;;;;69.87;26.77;;;;;;;3.99;100.00;100500.53;7394947;19;20419;-43
2021/11/13 01:41:29;;;;;;;77.63;29.77;;;;;;;4.12;100.00;100497.13;7402490;19;20391;-48
2021/11/13 01:43:58;;;;;;;75.37;30.07;;;;;;;4.18;100.00;100488.94;7397998;19;20426;-47
2021/11/13 01:46:28;;;;;;;79.47;30.20;;;;;;;4.07;100.00;100478.06;7401800;19;20392;-47
2021/11/13 01:48:57;;;;;;;76.50;30.47;;;;;;;4.17;100.00;100485.50;7394534;19;20423;-49
2021/11/13 01:51:29;;;;;;;74.97;28.70;;;;;;;4.39;100.00;100484.31;7402065;19;20396;-46
2021/11/13 01:54:05;;;;;;;73.70;28.77;;;;;;;4.19;100.00;100483.94;7395138;19;20418;-44
2021/11/13 01:56:38;;;;;;;70.40;28.00;;;;;;;4.34;100.00;100478.03;7401697;19;20398;-44
2021/11/13 01:59:09;;;;;;;74.40;30.27;;;;;;;4.22;100.00;100483.25;7397563;19;20679;-49
2021/11/13 02:01:40;;;;;;;76.47;31.10;;;;;;;4.30;100.00;100486.28;7401652;19;20455;-44
2021/11/13 02:04:09;;;;;;;72.90;28.97;;;;;;;4.09;100.00;100486.69;7394905;19;20471;-48
2021/11/13 02:06:39;;;;;;;67.93;27.90;;;;;;;4.09;100.00;100481.59;7401914;19;20836;-47
2021/11/13 02:09:08;;;;;;;67.90;28.80;;;;;;;4.24;100.00;100481.69;7394188;19;20419;-47
2021/11/13 02:11:40;;;;;;;77.57;31.17;;;;;;;4.46;100.00;100488.13;7400998;19;20855;-50
2021/11/13 02:14:10;;;;;;;62.17;27.40;;;;;;;4.95;100.00;100485.16;7397581;19;20502;-50
2021/11/13 02:16:40;;;;;;;116.77;49.30;;;;;;;5.67;100.00;100476.47;7401498;19;20388;-50
2021/11/13 02:19:09;;;;;;;65.37;28.23;;;;;;;4.50;100.00;100474.75;7394012;19;20426;-51
2021/11/13 02:21:41;;;;;;;71.10;30.30;;;;;;;4.52;100.00;100477.41;7400646;19;20396;-46
2021/11/13 02:24:11;;;;;;;80.53;32.77;;;;;;;4.44;100.00;100480.38;7391328;19;20465;-50
2021/11/13 02:26:41;;;;;;;84.87;35.10;;;;;;;4.36;100.00;100481.56;7401055;19;20392;-49
2021/11/13 02:29:10;;;;;;;61.07;26.87;;;;;;;4.36;100.00;100478.13;7392028;19;20457;-44
2021/11/13 02:31:42;;;;;;;75.40;32.00;;;;;;;4.28;100.00;100477.66;7400750;19;20467;-43
2021/11/13 02:34:13;;;;;;;71.00;29.93;;;;;;;4.38;100.00;100477.44;7391823;19;20425;-44
2021/11/13 02:36:45;;;;;;;72.97;31.40;;;;;;;4.35;100.00;100474.69;7400977;19;20413;-49
2021/11/13 02:39:16;;;;;;;72.27;29.60;;;;;;;4.41;100.00;100475.06;7393455;19;20898;-44
2021/11/13 02:41:48;;;;;;;69.63;27.30;;;;;;;4.51;100.00;100470.53;7400341;19;20723;-46
2021/11/13 02:44:19;;;;;;;79.50;30.03;;;;;;;4.55;100.00;100467.38;7393994;19;20419;-44
2021/11/13 02:46:49;;;;;;;72.70;31.03;;;;;;;4.70;100.00;100465.75;7401545;19;20463;-47
2021/11/13 02:49:18;;;;;;;65.97;28.60;;;;;;;4.48;100.00;100472.88;7392532;19;20519;-49
2021/11/13 02:51:50;;;;;;;59.90;26.57;;;;;;;4.28;100.00;100482.75;7404399;19;20404;-45
2021/11/13 02:54:20;;;;;;;67.10;28.20;;;;;;;4.45;100.00;100471.03;7392064;19;20470;-47
2021/11/13 02:56:50;;;;;;;69.50;29.80;;;;;;;4.52;100.00;100472.31;7399987;19;20396;-49
2021/11/13 02:59:19;;;;;;;65.90;29.00;;;;;;;4.16;100.00;100472.66;7392753;19;20425;-45
2021/11/13 03:01:49;;;;;;;61.27;26.77;;;;;;;4.22;100.00;100473.06;7399709;19;20391;-44
2021/11/13 03:04:19;;;;;;;62.53;26.60;;;;;;;4.30;100.00;100470.94;7393460;19;20415;-45
2021/11/13 03:06:51;;;;;;;60.00;26.17;;;;;;;4.18;100.00;100465.97;7400196;19;20659;-44
2021/11/13 03:09:21;;;;;;;69.73;27.30;;;;;;;4.14;100.00;100480.22;7394847;19;20447;-43
2021/11/13 03:11:50;;;;;;;61.73;28.27;;;;;;;4.08;100.00;100471.28;7399514;19;20715;-46
2021/11/13 03:14:20;;;;;;;61.77;26.97;;;;;;;4.15;100.00;100471.75;7396222;19;20438;-43
2021/11/13 03:16:49;;;;;;;62.73;25.60;;;;;;;4.10;100.00;100464.59;7399684;19;20469;-44
2021/11/13 03:19:19;;;;;;;64.87;27.20;;;;;;;4.09;100.00;100465.41;7392300;19;20499;-44
2021/11/13 03:21:48;;;;;;;67.53;28.77;;;;;;;4.13;100.00;100468.25;7399054;19;20402;-44
2021/11/13 03:24:21;;;;;;;67.00;26.83;;;;;;;3.95;100.00;100473.03;7392777;19;20419;-44
2021/11/13 03:26:51;;;;;;;64.27;27.47;;;;;;;4.18;100.00;100465.97;7399344;19;20845;-43
2021/11/13 03:29:23;;;;;;;74.20;29.10;;;;;;;4.24;100.00;100455.25;7389858;19;20498;-44
2021/11/13 03:31:55;;;;;;;62.63;27.27;;;;;;;4.53;100.00;100449.41;7398629;19;20402;-44
2021/11/13 03:34:24;;;;;;;63.27;26.70;;;;;;;4.49;100.00;100461.88;7392465;19;20414;-45
2021/11/13 03:36:54;;;;;;;63.27;26.50;;;;;;;4.32;100.00;100460.03;7399091;19;20727;-44
2021/11/13 03:39:26;;;;;;;65.00;28.00;;;;;;;4.33;100.00;100466.91;7391502;19;20426;-44
2021/11/13 03:41:55;;;;;;;67.60;27.87;;;;;;;4.43;100.00;100458.19;7398262;19;20388;-44
2021/11/13 03:44:25;;;;;;;64.87;28.37;;;;;;;4.41;100.00;100469.09;7392238;19;20487;-45
2021/11/13 03:46:54;;;;;;;54.67;26.10;;;;;;;4.19;100.00;100466.06;7406328;19;20414;-46
2021/11/13 03:49:23;;;;;;;62.43;27.03;;;;;;;4.11;100.00;100469.78;7396852;19;20430;-44
2021/11/13 03:51:53;;;;;;;63.20;26.40;;;;;;;4.29;100.00;100469.19;7405671;19;20410;-44
2021/11/13 03:54:25;;;;;;;59.83;28.17;;;;;;;4.50;100.00;100469.63;7399525;19;20478;-44
2021/11/13 03:56:55;;;;;;;57.60;24.97;;;;;;;4.22;100.00;100473.06;7406037;19;20405;-47
2021/11/13 03:59:26;;;;;;;61.20;26.00;;;;;;;4.30;100.00;100468.41;7398848;19;20430;-45
2021/11/13 04:01:55;;;;;;;66.60;28.40;;;;;;;4.66;100.00;100461.25;7405474;19;20401;-46
2021/11/13 04:04:24;;;;;;;65.80;26.83;;;;;;;4.48;100.00;100472.88;7401451;19;20872;-44
2021/11/13 04:06:54;;;;;;;60.30;27.97;;;;;;;4.62;100.00;100466.97;7405744;19;20402;-46
2021/11/13 04:09:26;;;;;;;60.87;27.80;;;;;;;4.93;100.00;100463.69;7400087;19;20429;-48
2021/11/13 04:11:56;;;;;;;58.43;27.27;;;;;;;4.88;100.00;100462.56;7405062;19;20466;-44
2021/11/13 04:14:26;;;;;;;55.27;26.00;;;;;;;4.91;100.00;100460.16;7406077;19;20515;-45
2021/11/13 04:16:55;;;;;;;57.17;25.60;;;;;;;4.63;100.00;100466.19;7405609;19;20390;-44
2021/11/13 04:19:25;;;;;;;52.50;25.63;;;;;;;4.57;100.00;100459.00;7400994;19;20423;-43
2021/11/13 04:21:54;;;;;;;58.47;25.47;;;;;;;4.83;100.00;100453.72;7404814;19;20451;-45
2021/11/13 04:24:26;;;;;;;61.60;27.60;;;;;;;5.03;100.00;100457.44;7397263;19;20415;-46
2021/11/13 04:26:56;;;;;;;58.23;24.70;;;;;;;4.91;100.00;100460.16;7407978;19;20466;-46
2021/11/13 04:29:25;;;;;;;64.00;25.97;;;;;;;4.65;100.00;100474.81;7395742;19;20502;-47
2021/11/13 04:31:55;;;;;;;57.03;25.30;;;;;;;4.82;100.00;100463.06;7404465;19;20676;-45
2021/11/13 04:34:28;;;;;;;56.87;25.63;;;;;;;4.96;100.00;100458.78;7397780;19;20423;-46
2021/11/13 04:36:59;;;;;;;58.17;27.10;;;;;;;4.69;100.00;100473.31;7404814;19;20695;-43
2021/11/13 04:39:31;;;;;;;55.10;25.30;;;;;;;4.69;100.00;100471.66;7401679;19;20527;-45
2021/11/13 04:42:01;;;;;;;61.90;26.80;;;;;;;4.75;100.00;100471.16;7408654;19;20437;-45
2021/11/13 04:44:30;;;;;;;54.63;25.40;;;;;;;4.96;100.00;100465.56;7403497;19;20415;-46
2021/11/13 04:47:00;;;;;;;59.00;25.13;;;;;;;4.91;100.00;100474.66;7404549;19;20396;-46
2021/11/13 04:49:29;;;;;;;54.40;25.00;;;;;;;4.61;100.00;100469.44;7404690;19;20515;-48
2021/11/13 04:51:59;;;;;;;51.83;25.20;;;;;;;4.49;100.00;100477.22;7403964;19;20455;-44
2021/11/13 04:54:28;;;;;;;51.17;25.50;;;;;;;4.76;100.00;100477.16;7402894;19;20936;-44
2021/11/13 04:57:00;;;;;;;56.47;25.97;;;;;;;4.73;100.00;100473.59;7402099;19;20463;-48
2021/11/13 04:59:30;;;;;;;63.83;27.33;;;;;;;4.79;100.00;100477.31;7402717;19;20423;-51
2021/11/13 05:02:00;;;;;;;58.43;26.00;;;;;;;4.80;100.00;100479.09;7403525;19;20388;-48
2021/11/13 05:04:30;;;;;;;53.30;24.80;;;;;;;4.71;100.00;100479.41;7403191;19;20407;-49
2021/11/13 05:06:59;;;;;;;61.13;27.20;;;;;;;4.75;100.00;100477.91;7403933;19;20855;-49
2021/11/13 05:09:29;;;;;;;57.10;28.50;;;;;;;5.03;100.00;100472.78;7401228;19;20756;-47
2021/11/13 05:12:01;;;;;;;62.10;27.13;;;;;;;4.83;100.00;100484.41;7403243;19;20384;-50
2021/11/13 05:14:30;;;;;;;63.37;28.23;;;;;;;4.84;100.00;100481.03;7406151;19;20514;-44
2021/11/13 05:16:59;;;;;;;66.07;29.40;;;;;;;4.65;100.00;100479.94;7403603;19;20394;-49
2021/11/13 05:19:29;;;;;;;57.13;27.20;;;;;;;4.73;100.00;100473.59;7401808;19;20551;-44
2021/11/13 05:21:58;;;;;;;65.17;29.17;;;;;;;4.84;100.00;100478.50;7402775;19;20416;-46
2021/11/13 05:24:28;;;;;;;61.30;27.17;;;;;;;4.76;100.00;100482.28;7398868;19;20427;-46
2021/11/13 05:26:57;;;;;;;61.37;27.33;;;;;;;4.67;100.00;100482.59;7403236;19;20396;-47
2021/11/13 05:29:29;;;;;;;57.70;27.33;;;;;;;4.80;100.00;100481.66;7394928;19;20903;-45
2021/11/13 05:31:59;;;;;;;64.60;28.50;;;;;;;4.78;100.00;100485.78;7402699;19;20397;-48
2021/11/13 05:34:28;;;;;;;63.43;26.90;;;;;;;4.83;100.00;100479.28;7401953;19;20411;-48
2021/11/13 05:36:58;;;;;;;67.20;28.17;;;;;;;4.95;100.00;100481.69;7402869;19;20861;-45
2021/11/13 05:39:27;;;;;;;55.73;26.63;;;;;;;4.94;100.00;100478.28;7395427;19;20419;-51
2021/11/13 05:41:57;;;;;;;66.27;28.10;;;;;;;5.02;100.00;100475.28;7402240;19;20833;-48
2021/11/13 05:44:26;;;;;;;69.10;28.30;;;;;;;4.99;100.00;100476.84;7395904;19;20426;-46
2021/11/13 05:46:58;;;;;;;61.50;28.63;;;;;;;4.84;100.00;100481.03;7402301;19;20398;-50
2021/11/13 05:49:28;;;;;;;62.33;28.40;;;;;;;4.75;100.00;100483.03;7395922;19;20441;-51
2021/11/13 05:51:57;;;;;;;61.87;28.67;;;;;;;4.89;100.00;100489.00;7401949;19;20392;-47
2021/11/13 05:54:27;;;;;;;67.03;29.80;;;;;;;4.88;100.00;100483.00;7394205;19;20428;-44
2021/11/13 05:56:56;;;;;;;60.10;28.30;;;;;;;4.91;100.00;100483.19;7402106;19;20674;-46
2021/11/13 05:59:46;;;;;;;60.10;28.93;;;;;;;4.71;100.00;100475.19;7400982;19;20680;-46
2021/11/13 06:02:18;;;;;;;63.13;27.83;;;;;;;4.51;100.00;100479.06;7394928;19;20467;-44
2021/11/13 06:04:47;;;;;;;63.57;28.13;;;;;;;4.54;100.00;100479.28;7401643;19;20842;-44
2021/11/13 06:07:18;;;;;;;60.57;27.77;;;;;;;4.78;100.00;100485.78;7395685;19;20380;-44
2021/11/13 06:09:47;;;;;;;63.80;28.07;;;;;;;5.40;100.00;100474.09;7400125;19;20666;-43
2021/11/13 06:12:17;;;;;;;65.70;26.90;;;;;;;6.30;100.00;100476.56;7394889;19;20403;-46
2021/11/13 06:14:46;;;;;;;58.03;25.10;;;;;;;7.24;100.00;100461.75;7403968;19;20926;-43
2021/11/13 06:17:18;;;;;;;55.37;26.50;;;;;;;7.07;100.00;100480.56;7395354;19;20400;-44
2021/11/13 06:19:48;;;;;;;85.97;40.47;;;;;;;7.00;100.00;100474.22;7400461;19;20462;-43
2021/11/13 06:22:17;;;;;;;109.23;50.37;;;;;;;6.66;100.00;100482.72;7394415;19;20412;-45
2021/11/13 06:24:47;;;;;;;64.23;32.50;;;;;;;6.89;100.00;100487.38;7401199;19;20407;-44
2021/11/13 06:27:17;;;;;;;117.63;56.97;;;;;;;6.73;100.00;100490.81;7399304;19;20476;-44
2021/11/13 06:29:47;;;;;;;87.70;41.17;;;;;;;7.12;100.00;100485.13;7399623;19;20398;-44
2021/11/13 06:32:19;;;;;;;111.73;49.93;;;;;;;6.56;100.00;100499.31;7393765;19;20466;-44
2021/11/13 06:34:49;;;;;;;52.23;27.70;;;;;;;5.76;100.00;100502.63;7401649;19;20530;-44
2021/11/13 06:37:18;;;;;;;82.33;36.13;;;;;;;6.26;100.00;100499.38;7394617;19;20660;-45
2021/11/13 06:39:48;;;;;;;59.73;29.40;;;;;;;6.84;100.00;100511.91;7400018;19;20406;-47
2021/11/13 06:42:17;;;;;;;60.20;26.17;;;;;;;6.85;100.00;100517.91;7394251;19;20845;-44
2021/11/13 06:44:47;;;;;;;53.93;27.13;;;;;;;7.30;100.00;100522.81;7399995;19;20468;-45
2021/11/13 06:47:19;;;;;;;62.07;30.10;;;;;;;6.95;100.00;100526.97;7397734;19;20403;-44
2021/11/13 06:49:49;;;;;;;55.50;26.53;;;;;;;6.62;100.00;100538.97;7401963;19;20400;-44
2021/11/13 06:52:18;;;;;;;49.70;25.73;;;;;;;6.39;100.00;100539.38;7394960;19;20418;-44
2021/11/13 06:54:47;;;;;;;52.27;25.83;;;;;;;6.94;100.00;100543.16;7400547;19;20653;-44
2021/11/13 06:57:17;;;;;;;91.80;44.60;;;;;;;6.64;100.00;100549.31;7394393;19;20389;-45
2021/11/13 06:59:47;;;;;;;104.93;50.50;;;;;;;6.56;100.00;100545.44;7399081;19;20395;-48
2021/11/13 07:02:19;;;;;;;56.67;28.63;;;;;;;7.14;100.00;100552.78;7393646;19;20425;-48
2021/11/13 07:04:49;;;;;;;137.03;63.83;;;;;;;6.42;100.00;100553.22;7400505;19;20668;-44
2021/11/13 07:07:18;;;;;;;107.87;49.00;;;;;;;6.91;100.00;100553.28;7395722;19;20389;-46
2021/11/13 07:09:47;;;;;;;65.10;32.70;;;;;;;7.12;100.00;100551.84;7398872;19;20398;-47
2021/11/13 07:12:17;;;;;;;52.00;24.37;;;;;;;6.11;100.00;100554.09;7393392;19;20482;-46
2021/11/13 07:14:46;;;;;;;47.07;23.10;;;;;;;5.49;100.00;100566.75;7399296;19;20448;-48
2021/11/13 07:17:19;;;;;;;56.77;26.70;;;;;;;5.19;100.00;100556.47;7393551;19;20450;-47
2021/11/13 07:19:48;;;;;;;58.40;26.23;;;;;;;4.89;100.00;100563.13;7397341;19;20390;-44
2021/11/13 07:22:18;;;;;;;57.50;26.80;;;;;;;5.02;100.00;100562.22;7392962;19;20753;-43
2021/11/13 07:24:48;;;;;;;58.83;26.30;;;;;;;4.81;100.00;100567.75;7398945;19;20459;-43
2021/11/13 07:27:17;;;;;;;51.83;24.37;;;;;;;4.54;100.00;100572.94;7393549;19;20392;-46
2021/11/13 07:29:57;;;;;;;52.00;24.90;;;;;;;4.51;100.00;100578.72;7398223;19;20402;-45
2021/11/13 07:32:29;;;;;;;59.60;26.20;;;;;;;4.56;100.00;100584.16;7391811;19;20677;-44
2021/11/13 07:34:59;;;;;;;48.67;24.57;;;;;;;4.49;100.00;100592.19;7399260;19;20764;-46
2021/11/13 07:37:29;;;;;;;58.30;27.60;;;;;;;4.55;100.00;100590.03;7392358;19;20494;-46
2021/11/13 07:39:58;;;;;;;55.83;24.80;;;;;;;4.58;100.00;100580.00;7398358;19;20460;-45
2021/11/13 07:42:28;;;;;;;57.67;26.47;;;;;;;4.59;100.00;100586.88;7393971;19;20482;-44
2021/11/13 07:44:59;;;;;;;59.73;26.73;;;;;;;4.43;100.00;100598.69;7398831;19;20384;-44
2021/11/13 07:47:31;;;;;;;63.07;28.40;;;;;;;4.42;100.00;100596.03;7390081;19;20880;-45
2021/11/13 07:50:00;;;;;;;54.63;24.90;;;;;;;4.45;100.00;100597.13;7398118;19;20465;-46
2021/11/13 07:52:30;;;;;;;57.40;25.13;;;;;;;4.40;100.00;100602.69;7389681;19;20407;-45
2021/11/13 07:54:59;;;;;;;54.23;26.00;;;;;;;4.41;100.00;100604.50;7398491;19;20391;-47
2021/11/13 07:57:29;;;;;;;58.07;24.80;;;;;;;4.32;100.00;100607.34;7392497;19;20427;-44
2021/11/13 07:59:58;;;;;;;55.33;25.00;;;;;;;4.40;100.00;100602.69;7397398;19;20410;-45
2021/11/13 08:02:30;;;;;;;54.77;24.90;;;;;;;4.39;100.00;100604.38;7391066;19;20403;-48
2021/11/13 08:05:00;;;;;;;52.90;24.77;;;;;;;4.34;100.00;100608.31;7396577;19;20385;-44
2021/11/13 08:07:29;;;;;;;52.97;26.20;;;;;;;4.40;100.00;100607.81;7391681;19;20422;-46
2021/11/13 08:09:59;;;;;;;59.60;26.40;;;;;;;4.43;100.00;100611.47;7393548;19;20408;-44
2021/11/13 08:12:28;;;;;;;50.50;24.50;;;;;;;4.42;100.00;100612.22;7392819;19;20421;-48
2021/11/13 08:14:58;;;;;;;55.70;26.63;;;;;;;4.45;100.00;100609.88;7401560;19;20399;-46
2021/11/13 08:17:27;;;;;;;52.00;25.13;;;;;;;4.40;100.00;100607.81;7390950;19;20429;-43
2021/11/13 08:19:59;;;;;;;55.83;24.40;;;;;;;4.37;100.00;100608.53;7398040;19;20394;-46
2021/11/13 08:22:29;;;;;;;53.83;24.10;;;;;;;4.43;100.00;100610.56;7389704;19;20754;-43
2021/11/13 08:24:58;;;;;;;51.50;24.60;;;;;;;4.51;100.00;100611.94;7397455;19;20866;-45
2021/11/13 08:27:28;;;;;;;58.10;25.00;;;;;;;4.46;100.00;100610.75;7392526;19;20542;-45
2021/11/13 08:29:57;;;;;;;55.50;25.73;;;;;;;4.49;100.00;100616.06;7396512;19;20461;-45
2021/11/13 08:32:27;;;;;;;53.67;24.10;;;;;;;4.56;100.00;100612.25;7392110;19;20407;-45
2021/11/13 08:34:56;;;;;;;51.60;24.30;;;;;;;4.42;100.00;100613.91;7404804;19;20447;-50
2021/11/13 08:37:28;;;;;;;47.23;23.93;;;;;;;4.30;100.00;100612.34;7398106;19;20794;-47
2021/11/13 08:39:58;;;;;;;48.07;24.20;;;;;;;4.44;100.00;100622.56;7404019;19;20398;-50
2021/11/13 08:42:28;;;;;;;51.43;23.20;;;;;;;4.42;100.00;100616.47;7398360;19;20513;-46
2021/11/13 08:44:57;;;;;;;58.00;26.27;;;;;;;4.53;100.00;100622.28;7405001;19;20407;-46
2021/11/13 08:47:27;;;;;;;52.03;25.60;;;;;;;4.47;100.00;100620.22;7397497;19;20485;-46
2021/11/13 08:49:57;;;;;;;50.47;25.57;;;;;;;4.52;100.00;100610.28;7405714;19;20385;-49
2021/11/13 08:52:29;;;;;;;69.20;30.57;;;;;;;5.49;100.00;100607.69;7394558;19;20741;-49
2021/11/13 08:54:59;;;;;;;49.43;26.20;;;;;;;6.56;100.00;100600.16;7404117;19;20433;-46
2021/11/13 08:57:28;;;;;;;77.50;38.13;;;;;;;6.58;100.00;100596.00;7398277;19;20411;-45
2021/11/13 08:59:58;;;;;;;107.53;52.17;;;;;;;7.18;100.00;100599.16;7403066;19;20399;-46
2021/11/13 09:02:29;;;;;;;42.63;21.33;;;;;;;6.39;100.00;100599.22;7399864;19;20422;-51
2021/11/13 09:05:00;;;;;;;79.90;41.23;;;;;;;6.27;100.00;100591.72;7403747;19;20424;-46
2021/11/13 09:07:32;;;;;;;99.97;44.60;;;;;;;6.14;100.00;100599.47;7397074;19;20412;-44
2021/11/13 09:10:01;;;;;;;51.50;24.70;;;;;;;5.95;100.00;100604.41;7402961;19;20445;-43
2021/11/13 09:12:31;;;;;;;57.13;31.00;;;;;;;5.74;100.00;100606.59;7396280;19;20468;-44
2021/11/13 09:15:04;;;;;;;42.87;22.87;;;;;;;5.53;100.00;100604.53;7406119;19;20461;-43
2021/11/13 09:17:33;;;;;;;40.20;22.17;;;;;;;5.27;100.00;100610.63;7396151;19;20488;-43
2021/11/13 09:20:03;;;;;;;49.37;24.47;;;;;;;5.44;100.00;100621.88;7407089;19;20391;-43
2021/11/13 09:22:36;;;;;;;45.80;24.17;;;;;;;5.46;100.00;100619.41;7395747;19;20422;-48
2021/11/13 09:25:08;;;;;;;47.00;24.13;;;;;;;5.35;100.00;100619.69;7403196;19;20385;-43
2021/11/13 09:27:39;;;;;;;47.47;24.90;;;;;;;5.24;100.00;100631.78;7397247;19;20515;-44
2021/11/13 09:30:11;;;;;;;42.80;22.27;;;;;;;5.08;100.00;100634.22;7401984;19;20376;-44
2021/11/13 09:32:42;;;;;;;47.10;24.30;;;;;;;5.11;100.00;100642.97;7394808;19;20491;-43
2021/11/13 09:35:12;;;;;;;47.67;25.40;;;;;;;5.05;100.00;100644.22;7401795;19;20388;-43
2021/11/13 09:37:46;;;;;;;51.20;24.50;;;;;;;5.03;100.00;100646.69;7396087;19;20417;-46
2021/11/13 09:40:18;;;;;;;51.13;25.70;;;;;;;5.40;100.00;100645.53;7402063;19;20407;-46
2021/11/13 09:42:48;;;;;;;52.87;23.03;;;;;;;5.44;100.00;100644.03;7396286;19;20411;-45
2021/11/13 09:45:19;;;;;;;57.07;23.20;;;;;;;5.11;100.00;100644.63;7307103;19;63370;-41
2021/11/13 09:49:54;;;;;;;51.43;24.07;;;;;;;4.91;100.00;100644.25;7182078;19;125050;-45
2021/11/13 09:52:24;;;;;;;47.67;22.20;;;;;;;4.80;100.00;100646.16;7098770;19;5012023;-46
2021/11/13 09:54:53;;;;;;;43.17;21.57;;;;;;;4.87;100.00;100649.97;7435234;19;20402;-44
2021/11/13 09:57:23;;;;;;;49.80;24.20;;;;;;;4.91;100.00;100661.28;7429545;19;20422;-49
2021/11/13 09:59:52;;;;;;;45.13;22.37;;;;;;;4.84;100.00;100655.78;7430739;19;20419;-49
2021/11/13 10:02:22;;;;;;;48.00;24.60;;;;;;;5.03;100.00;100656.06;7423599;19;20429;-45
2021/11/13 10:04:54;;;;;;;47.77;24.83;;;;;;;5.16;100.00;100663.69;7430652;19;20706;-46
2021/11/13 10:07:24;;;;;;;49.80;22.83;;;;;;;5.22;100.00;100660.63;7428470;19;20566;-47
2021/11/13 10:09:53;;;;;;;48.13;22.60;;;;;;;4.99;100.00;100663.53;7432427;19;20415;-43
2021/11/13 10:12:35;;;;;;;46.37;23.03;;;;;;;4.97;100.00;100672.78;7429554;19;20497;-45
2021/11/13 10:15:26;;;;;;;46.90;23.87;;;;;;;5.33;100.00;100669.00;7435024;19;20493;-44
2021/11/13 10:18:12;;;;;;;47.00;24.63;;;;;;;5.34;100.00;100669.06;7428134;19;20505;-47
2021/11/13 10:20:46;;;;;;;46.80;23.30;;;;;;;5.25;100.00;100671.97;7432529;19;20418;-45
2021/11/13 10:23:21;;;;;;;63.67;32.20;;;;;;;5.83;100.00;100670.28;7427387;19;20454;-46
2021/11/13 10:26:00;;;;;;;57.00;32.20;;;;;;;5.53;100.00;100671.09;7434697;19;20430;-47
2021/11/13 10:28:31;;;;;;;126.83;60.27;;;;;;;6.21;100.00;100663.97;7426667;19;20442;-49
2021/11/13 10:31:10;;;;;;;76.43;37.97;;;;;;;6.33;100.00;100668.94;7435669;19;20480;-48
2021/11/13 10:33:40;;;;;;;87.40;42.93;;;;;;;6.89;100.00;100658.34;7428373;19;20433;-47
2021/11/13 10:36:14;;;;;;;66.03;33.63;;;;;;;6.60;100.00;100658.50;7435585;19;20404;-52
2021/11/13 10:38:48;;;;;;;58.30;28.97;;;;;;;6.80;100.00;100653.59;7426164;19;20451;-46
2021/11/13 10:41:17;;;;;;;58.90;30.40;;;;;;;6.77;100.00;100650.84;7433990;19;20492;-46
2021/11/13 10:43:48;;;;;;;44.53;24.07;;;;;;;7.27;100.00;100648.38;7427627;19;20500;-44
2021/11/13 10:46:19;;;;;;;34.80;20.50;;;;;;;7.07;100.00;100655.03;7434384;19;20424;-47
2021/11/13 10:48:51;;;;;;;43.63;22.57;;;;;;;7.14;100.00;100658.00;7425802;19;20898;-48
2021/11/13 10:51:25;;;;;;;40.80;20.83;;;;;;;7.22;100.00;100655.84;7434116;19;20424;-46
2021/11/13 10:53:54;;;;;;;48.00;22.97;;;;;;;7.07;100.00;100658.47;7425523;19;20455;-46
2021/11/13 10:56:25;;;;;;;38.63;20.77;;;;;;;6.27;100.00;100660.00;7434915;19;20477;-46
2021/11/13 10:58:58;;;;;;;47.70;22.73;;;;;;;6.11;100.00;100665.94;7427472;19;20516;-46
2021/11/13 11:01:34;;;;;;;41.53;20.97;;;;;;;5.83;100.00;100664.28;7406917;19;20408;-44
2021/11/13 11:04:10;;;;;;;37.53;21.87;;;;;;;5.94;100.00;100664.13;7399626;19;20704;-46
2021/11/13 11:06:49;;;;;;;41.43;18.70;;;;;;;5.67;100.00;100660.78;7405858;19;20480;-49
2021/11/13 11:09:28;;;;;;;36.80;19.83;;;;;;;6.02;100.00;100667.16;7393490;19;20467;-45
2021/11/13 11:11:59;;;;;;;32.50;18.97;;;;;;;5.90;100.00;100671.53;7406461;19;20413;-45
2021/11/13 11:14:33;;;;;;;36.43;20.67;;;;;;;5.73;100.00;100662.81;7404830;19;20459;-47
2021/11/13 11:17:05;;;;;;;37.60;19.80;;;;;;;5.63;100.00;100669.06;7402769;19;20408;-53
2021/11/13 11:19:36;;;;;;;39.10;21.43;;;;;;;5.52;100.00;100666.75;7404640;19;20434;-53
2021/11/13 11:22:10;;;;;;;42.27;21.67;;;;;;;5.70;100.00;100667.78;7397539;19;20413;-52
2021/11/13 11:24:46;;;;;;;46.33;23.93;;;;;;;5.89;100.00;100664.66;7404787;19;20473;-51
2021/11/13 11:27:19;;;;;;;44.53;23.20;;;;;;;5.81;100.00;100664.19;7399732;19;20653;-52